sensor_id;sensor_type;location;lat;lon;timestamp;temperature;humidity
65826;DHT22;52586;-43.152;172.732;2024-03-23T00:53:36;22.20;51.00
65826;DHT22;52586;-43.152;172.732;2024-03-23T00:56:07;22.20;51.00
65826;DHT22;52586;-43.152;172.732;2024-03-23T00:58:36;22.30;51.00
65826;DHT22;52586;-43.152;172.732;2024-03-23T01:01:07;22.30;51.00
65826;DHT22;52586;-43.152;172.732;2024-03-23T01:03:36;22.40;51.00
65826;DHT22;52586;-43.152;172.732;2024-03-23T01:06:06;22.40;50.90
65826;DHT22;52586;-43.152;172.732;2024-03-23T01:08:37;22.40;50.90
65826;DHT22;52586;-43.152;172.732;2024-03-23T01:11:08;22.40;50.90
65826;DHT22;52586;-43.152;172.732;2024-03-23T01:13:37;22.40;50.90
65826;DHT22;52586;-43.152;172.732;2024-03-23T01:16:08;22.50;50.90
65826;DHT22;52586;-43.152;172.732;2024-03-23T01:18:37;22.50;50.80
65826;DHT22;52586;-43.152;172.732;2024-03-23T01:21:08;22.50;50.80
65826;DHT22;52586;-43.152;172.732;2024-03-23T01:23:39;22.50;50.80
65826;DHT22;52586;-43.152;172.732;2024-03-23T01:26:10;22.50;50.70
65826;DHT22;52586;-43.152;172.732;2024-03-23T01:28:39;22.50;50.80
65826;DHT22;52586;-43.152;172.732;2024-03-23T01:31:09;22.50;50.80
65826;DHT22;52586;-43.152;172.732;2024-03-23T01:33:38;22.50;50.80
65826;DHT22;52586;-43.152;172.732;2024-03-23T01:36:09;22.60;50.90
65826;DHT22;52586;-43.152;172.732;2024-03-23T01:38:40;22.60;50.80
65826;DHT22;52586;-43.152;172.732;2024-03-23T01:41:11;22.60;50.80
65826;DHT22;52586;-43.152;172.732;2024-03-23T01:43:40;22.60;51.40
65826;DHT22;52586;-43.152;172.732;2024-03-23T01:46:11;22.70;50.80
65826;DHT22;52586;-43.152;172.732;2024-03-23T01:48:40;22.70;50.70
65826;DHT22;52586;-43.152;172.732;2024-03-23T01:51:11;22.70;50.70
65826;DHT22;52586;-43.152;172.732;2024-03-23T01:53:42;22.70;50.70
65826;DHT22;52586;-43.152;172.732;2024-03-23T01:56:12;22.70;50.60
65826;DHT22;52586;-43.152;172.732;2024-03-23T01:58:42;22.80;50.70
65826;DHT22;52586;-43.152;172.732;2024-03-23T02:01:13;22.80;50.70
65826;DHT22;52586;-43.152;172.732;2024-03-23T02:03:42;22.80;50.70
65826;DHT22;52586;-43.152;172.732;2024-03-23T02:06:12;22.80;50.70
65826;DHT22;52586;-43.152;172.732;2024-03-23T02:08:45;22.80;50.50
65826;DHT22;52586;-43.152;172.732;2024-03-23T02:11:16;22.80;50.60
65826;DHT22;52586;-43.152;172.732;2024-03-23T02:13:45;22.80;50.50
65826;DHT22;52586;-43.152;172.732;2024-03-23T02:16:15;22.80;50.60
65826;DHT22;52586;-43.152;172.732;2024-03-23T02:18:44;22.80;50.50
65826;DHT22;52586;-43.152;172.732;2024-03-23T02:21:16;22.80;50.50
65826;DHT22;52586;-43.152;172.732;2024-03-23T02:23:47;22.80;50.50
65826;DHT22;52586;-43.152;172.732;2024-03-23T02:26:18;22.80;50.50
65826;DHT22;52586;-43.152;172.732;2024-03-23T02:28:47;22.80;50.50
65826;DHT22;52586;-43.152;172.732;2024-03-23T02:31:18;22.80;50.50
65826;DHT22;52586;-43.152;172.732;2024-03-23T02:33:47;22.90;50.50
65826;DHT22;52586;-43.152;172.732;2024-03-23T02:36:17;22.90;50.50
65826;DHT22;52586;-43.152;172.732;2024-03-23T02:38:50;22.90;50.50
65826;DHT22;52586;-43.152;172.732;2024-03-23T02:41:21;22.90;50.50
65826;DHT22;52586;-43.152;172.732;2024-03-23T02:43:51;22.90;50.40
65826;DHT22;52586;-43.152;172.732;2024-03-23T02:46:22;22.90;50.40
65826;DHT22;52586;-43.152;172.732;2024-03-23T02:48:51;22.90;50.40
65826;DHT22;52586;-43.152;172.732;2024-03-23T02:51:21;22.90;50.40
65826;DHT22;52586;-43.152;172.732;2024-03-23T02:53:52;22.90;50.40
65826;DHT22;52586;-43.152;172.732;2024-03-23T02:56:23;22.90;50.50
65826;DHT22;52586;-43.152;172.732;2024-03-23T02:58:52;22.90;51.10
65826;DHT22;52586;-43.152;172.732;2024-03-23T03:01:23;22.90;50.40
65826;DHT22;52586;-43.152;172.732;2024-03-23T03:03:52;22.90;50.50
65826;DHT22;52586;-43.152;172.732;2024-03-23T03:06:26;22.90;50.40
65826;DHT22;52586;-43.152;172.732;2024-03-23T03:08:57;22.90;50.40
65826;DHT22;52586;-43.152;172.732;2024-03-23T03:11:28;22.90;50.40
65826;DHT22;52586;-43.152;172.732;2024-03-23T03:13:57;22.90;50.50
65826;DHT22;52586;-43.152;172.732;2024-03-23T03:16:28;22.90;50.50
65826;DHT22;52586;-43.152;172.732;2024-03-23T03:18:57;22.90;50.40
65826;DHT22;52586;-43.152;172.732;2024-03-23T03:21:28;22.90;50.40
65826;DHT22;52586;-43.152;172.732;2024-03-23T03:23:59;22.90;50.40
65826;DHT22;52586;-43.152;172.732;2024-03-23T03:26:29;22.90;50.50
65826;DHT22;52586;-43.152;172.732;2024-03-23T03:28:58;22.90;50.50
65826;DHT22;52586;-43.152;172.732;2024-03-23T03:31:29;22.90;50.50
65826;DHT22;52586;-43.152;172.732;2024-03-23T03:33:58;22.90;50.50
65826;DHT22;52586;-43.152;172.732;2024-03-23T03:36:29;22.90;50.50
65826;DHT22;52586;-43.152;172.732;2024-03-23T03:39:00;22.90;50.50
65826;DHT22;52586;-43.152;172.732;2024-03-23T03:41:31;22.90;50.50
65826;DHT22;52586;-43.152;172.732;2024-03-23T03:44:02;22.90;50.50
65826;DHT22;52586;-43.152;172.732;2024-03-23T03:46:31;22.90;50.50
65826;DHT22;52586;-43.152;172.732;2024-03-23T03:49:01;22.80;50.50
65826;DHT22;52586;-43.152;172.732;2024-03-23T03:51:31;22.80;50.50
65826;DHT22;52586;-43.152;172.732;2024-03-23T03:54:03;22.90;50.60
65826;DHT22;52586;-43.152;172.732;2024-03-23T03:56:32;22.80;50.50
65826;DHT22;52586;-43.152;172.732;2024-03-23T03:59:03;22.90;50.60
65826;DHT22;52586;-43.152;172.732;2024-03-23T04:01:32;22.80;50.60
65826;DHT22;52586;-43.152;172.732;2024-03-23T04:04:03;22.80;50.60
65826;DHT22;52586;-43.152;172.732;2024-03-23T04:06:32;22.90;50.60
65826;DHT22;52586;-43.152;172.732;2024-03-23T04:09:05;22.90;50.70
65826;DHT22;52586;-43.152;172.732;2024-03-23T04:11:34;22.90;50.70
65826;DHT22;52586;-43.152;172.732;2024-03-23T04:14:04;22.90;50.60
65826;DHT22;52586;-43.152;172.732;2024-03-23T04:16:35;22.80;50.50
65826;DHT22;52586;-43.152;172.732;2024-03-23T04:19:06;22.80;50.60
65826;DHT22;52586;-43.152;172.732;2024-03-23T04:21:36;22.80;50.60
65826;DHT22;52586;-43.152;172.732;2024-03-23T04:24:09;22.90;50.70
65826;DHT22;52586;-43.152;172.732;2024-03-23T04:26:47;22.90;50.60
65826;DHT22;52586;-43.152;172.732;2024-03-23T04:29:19;22.80;50.60
65826;DHT22;52586;-43.152;172.732;2024-03-23T04:31:50;22.90;50.70
65826;DHT22;52586;-43.152;172.732;2024-03-23T04:34:20;22.80;50.60
65826;DHT22;52586;-43.152;172.732;2024-03-23T04:36:50;22.80;50.70
65826;DHT22;52586;-43.152;172.732;2024-03-23T04:39:23;22.80;50.70
65826;DHT22;52586;-43.152;172.732;2024-03-23T04:41:53;22.80;50.70
65826;DHT22;52586;-43.152;172.732;2024-03-23T04:44:27;22.80;50.70
65826;DHT22;52586;-43.152;172.732;2024-03-23T04:46:58;22.80;50.80
65826;DHT22;52586;-43.152;172.732;2024-03-23T04:49:29;22.80;50.80
65826;DHT22;52586;-43.152;172.732;2024-03-23T04:51:59;22.80;50.80
65826;DHT22;52586;-43.152;172.732;2024-03-23T04:54:32;22.70;50.70
65826;DHT22;52586;-43.152;172.732;2024-03-23T04:57:02;22.80;50.80
65826;DHT22;52586;-43.152;172.732;2024-03-23T04:59:33;22.70;50.80
65826;DHT22;52586;-43.152;172.732;2024-03-23T05:02:02;22.70;50.80
65826;DHT22;52586;-43.152;172.732;2024-03-23T05:04:33;22.80;50.90
65826;DHT22;52586;-43.152;172.732;2024-03-23T05:07:02;22.80;50.90
65826;DHT22;52586;-43.152;172.732;2024-03-23T05:09:35;22.70;50.90
65826;DHT22;52586;-43.152;172.732;2024-03-23T05:12:04;22.70;50.90
65826;DHT22;52586;-43.152;172.732;2024-03-23T05:14:35;22.70;50.90
65826;DHT22;52586;-43.152;172.732;2024-03-23T05:17:04;22.80;51.00
65826;DHT22;52586;-43.152;172.732;2024-03-23T05:19:35;22.80;51.00
65826;DHT22;52586;-43.152;172.732;2024-03-23T05:22:04;22.70;51.00
65826;DHT22;52586;-43.152;172.732;2024-03-23T05:24:36;22.80;51.00
65826;DHT22;52586;-43.152;172.732;2024-03-23T05:27:06;22.80;51.00
65826;DHT22;52586;-43.152;172.732;2024-03-23T05:29:36;22.80;51.00
65826;DHT22;52586;-43.152;172.732;2024-03-23T05:32:06;22.70;50.90
65826;DHT22;52586;-43.152;172.732;2024-03-23T05:34:36;22.80;51.00
65826;DHT22;52586;-43.152;172.732;2024-03-23T05:37:06;22.70;50.90
65826;DHT22;52586;-43.152;172.732;2024-03-23T05:39:38;22.70;50.90
65826;DHT22;52586;-43.152;172.732;2024-03-23T05:42:07;22.80;51.00
65826;DHT22;52586;-43.152;172.732;2024-03-23T05:44:38;22.80;50.90
65826;DHT22;52586;-43.152;172.732;2024-03-23T05:47:07;22.80;50.90
65826;DHT22;52586;-43.152;172.732;2024-03-23T05:49:38;22.80;50.80
65826;DHT22;52586;-43.152;172.732;2024-03-23T05:52:07;22.80;50.80
65826;DHT22;52586;-43.152;172.732;2024-03-23T05:54:40;22.80;50.80
65826;DHT22;52586;-43.152;172.732;2024-03-23T05:57:10;22.80;50.80
65826;DHT22;52586;-43.152;172.732;2024-03-23T05:59:41;22.80;50.70
65826;DHT22;52586;-43.152;172.732;2024-03-23T06:02:10;22.80;50.70
65826;DHT22;52586;-43.152;172.732;2024-03-23T06:04:41;22.90;50.70
65826;DHT22;52586;-43.152;172.732;2024-03-23T06:07:10;22.90;50.70
65826;DHT22;52586;-43.152;172.732;2024-03-23T06:09:43;22.80;50.70
65826;DHT22;52586;-43.152;172.732;2024-03-23T06:12:12;22.90;50.70
65826;DHT22;52586;-43.152;172.732;2024-03-23T06:14:43;22.90;50.60
65826;DHT22;52586;-43.152;172.732;2024-03-23T06:17:12;22.90;50.60
65826;DHT22;52586;-43.152;172.732;2024-03-23T06:19:43;22.90;50.60
65826;DHT22;52586;-43.152;172.732;2024-03-23T06:22:12;22.90;50.50
65826;DHT22;52586;-43.152;172.732;2024-03-23T06:24:45;22.90;50.50
65826;DHT22;52586;-43.152;172.732;2024-03-23T06:27:14;22.90;50.50
65826;DHT22;52586;-43.152;172.732;2024-03-23T06:29:45;22.90;50.40
65826;DHT22;52586;-43.152;172.732;2024-03-23T06:32:14;22.90;50.40
65826;DHT22;52586;-43.152;172.732;2024-03-23T06:34:45;22.90;50.40
65826;DHT22;52586;-43.152;172.732;2024-03-23T06:37:14;22.80;50.30
65826;DHT22;52586;-43.152;172.732;2024-03-23T06:39:47;22.80;50.30
65826;DHT22;52586;-43.152;172.732;2024-03-23T06:42:16;22.80;50.30
65826;DHT22;52586;-43.152;172.732;2024-03-23T06:44:47;22.80;50.20
65826;DHT22;52586;-43.152;172.732;2024-03-23T06:47:16;22.90;50.20
65826;DHT22;52586;-43.152;172.732;2024-03-23T06:49:46;22.80;50.20
65826;DHT22;52586;-43.152;172.732;2024-03-23T06:52:15;22.80;50.20
65826;DHT22;52586;-43.152;172.732;2024-03-23T06:54:48;22.80;50.10
65826;DHT22;52586;-43.152;172.732;2024-03-23T06:57:17;22.80;50.10
65826;DHT22;52586;-43.152;172.732;2024-03-23T06:59:48;22.80;50.10
65826;DHT22;52586;-43.152;172.732;2024-03-23T07:02:17;22.80;50.10
65826;DHT22;52586;-43.152;172.732;2024-03-23T07:04:48;22.80;50.10
65826;DHT22;52586;-43.152;172.732;2024-03-23T07:07:17;22.80;50.00
65826;DHT22;52586;-43.152;172.732;2024-03-23T07:09:49;22.80;50.00
65826;DHT22;52586;-43.152;172.732;2024-03-23T07:12:19;22.80;50.00
65826;DHT22;52586;-43.152;172.732;2024-03-23T07:14:49;22.80;50.00
65826;DHT22;52586;-43.152;172.732;2024-03-23T07:17:18;22.80;49.90
65826;DHT22;52586;-43.152;172.732;2024-03-23T07:19:49;22.70;49.90
65826;DHT22;52586;-43.152;172.732;2024-03-23T07:22:18;22.70;49.90
65826;DHT22;52586;-43.152;172.732;2024-03-23T07:24:52;22.70;49.90
65826;DHT22;52586;-43.152;172.732;2024-03-23T07:27:21;22.70;49.90
65826;DHT22;52586;-43.152;172.732;2024-03-23T07:29:51;22.70;49.90
65826;DHT22;52586;-43.152;172.732;2024-03-23T07:32:22;22.70;49.90
65826;DHT22;52586;-43.152;172.732;2024-03-23T07:34:54;22.60;49.90
65826;DHT22;52586;-43.152;172.732;2024-03-23T07:37:23;22.60;49.90
65826;DHT22;52586;-43.152;172.732;2024-03-23T07:39:56;22.60;49.80
65826;DHT22;52586;-43.152;172.732;2024-03-23T07:42:28;22.60;49.90
65826;DHT22;52586;-43.152;172.732;2024-03-23T07:44:58;22.60;49.80
65826;DHT22;52586;-43.152;172.732;2024-03-23T07:47:27;22.60;49.80
65826;DHT22;52586;-43.152;172.732;2024-03-23T07:49:58;22.60;49.90
65826;DHT22;52586;-43.152;172.732;2024-03-23T07:52:29;22.60;49.80
65826;DHT22;52586;-43.152;172.732;2024-03-23T07:55:02;22.60;49.80
65826;DHT22;52586;-43.152;172.732;2024-03-23T07:57:31;22.60;49.80
65826;DHT22;52586;-43.152;172.732;2024-03-23T08:00:02;22.50;49.70
65826;DHT22;52586;-43.152;172.732;2024-03-23T08:02:31;22.50;49.80
65826;DHT22;52586;-43.152;172.732;2024-03-23T08:05:02;22.50;49.70
65826;DHT22;52586;-43.152;172.732;2024-03-23T08:07:31;22.50;49.70
65826;DHT22;52586;-43.152;172.732;2024-03-23T08:10:05;22.50;49.70
65826;DHT22;52586;-43.152;172.732;2024-03-23T08:12:34;22.50;49.70
65826;DHT22;52586;-43.152;172.732;2024-03-23T08:15:05;22.40;49.70
65826;DHT22;52586;-43.152;172.732;2024-03-23T08:17:35;22.40;49.70
65826;DHT22;52586;-43.152;172.732;2024-03-23T08:20:06;22.40;49.70
65826;DHT22;52586;-43.152;172.732;2024-03-23T08:22:36;22.40;49.70
65826;DHT22;52586;-43.152;172.732;2024-03-23T08:25:09;22.40;49.70
65826;DHT22;52586;-43.152;172.732;2024-03-23T08:27:38;22.40;49.80
65826;DHT22;52586;-43.152;172.732;2024-03-23T08:30:09;22.40;49.80
65826;DHT22;52586;-43.152;172.732;2024-03-23T08:32:38;22.40;49.70
65826;DHT22;52586;-43.152;172.732;2024-03-23T08:35:09;22.40;49.80
65826;DHT22;52586;-43.152;172.732;2024-03-23T08:37:39;22.40;49.70
65826;DHT22;52586;-43.152;172.732;2024-03-23T08:40:12;22.30;49.70
65826;DHT22;52586;-43.152;172.732;2024-03-23T08:42:41;22.30;49.70
65826;DHT22;52586;-43.152;172.732;2024-03-23T08:45:11;22.30;49.70
65826;DHT22;52586;-43.152;172.732;2024-03-23T08:47:41;22.30;49.70
65826;DHT22;52586;-43.152;172.732;2024-03-23T08:50:11;22.20;49.60
65826;DHT22;52586;-43.152;172.732;2024-03-23T08:52:40;22.20;49.70
65826;DHT22;52586;-43.152;172.732;2024-03-23T08:55:13;22.20;49.60
65826;DHT22;52586;-43.152;172.732;2024-03-23T08:57:42;22.20;49.60
65826;DHT22;52586;-43.152;172.732;2024-03-23T09:00:13;22.20;49.70
65826;DHT22;52586;-43.152;172.732;2024-03-23T09:02:43;22.20;49.70
65826;DHT22;52586;-43.152;172.732;2024-03-23T09:05:17;22.10;49.60
65826;DHT22;52586;-43.152;172.732;2024-03-23T09:07:46;22.10;49.60
65826;DHT22;52586;-43.152;172.732;2024-03-23T09:10:19;22.10;49.60
65826;DHT22;52586;-43.152;172.732;2024-03-23T09:12:48;22.10;49.60
65826;DHT22;52586;-43.152;172.732;2024-03-23T09:15:18;22.10;49.60
65826;DHT22;52586;-43.152;172.732;2024-03-23T09:17:48;22.10;49.70
65826;DHT22;52586;-43.152;172.732;2024-03-23T09:20:18;22.10;49.70
65826;DHT22;52586;-43.152;172.732;2024-03-23T09:22:49;22.10;49.60
65826;DHT22;52586;-43.152;172.732;2024-03-23T09:25:21;22.00;49.60
65826;DHT22;52586;-43.152;172.732;2024-03-23T09:27:51;22.00;49.60
65826;DHT22;52586;-43.152;172.732;2024-03-23T09:30:22;22.00;49.50
65826;DHT22;52586;-43.152;172.732;2024-03-23T09:32:51;22.00;49.50
65826;DHT22;52586;-43.152;172.732;2024-03-23T09:35:21;22.00;49.50
65826;DHT22;52586;-43.152;172.732;2024-03-23T09:37:51;22.00;49.50
65826;DHT22;52586;-43.152;172.732;2024-03-23T09:40:24;21.90;49.50
65826;DHT22;52586;-43.152;172.732;2024-03-23T09:42:53;21.90;49.50
65826;DHT22;52586;-43.152;172.732;2024-03-23T09:45:29;21.90;49.50
65826;DHT22;52586;-43.152;172.732;2024-03-23T09:47:58;21.90;49.50
65826;DHT22;52586;-43.152;172.732;2024-03-23T09:50:29;21.90;49.50
65826;DHT22;52586;-43.152;172.732;2024-03-23T09:52:58;21.80;49.40
65826;DHT22;52586;-43.152;172.732;2024-03-23T09:55:31;21.80;49.50
65826;DHT22;52586;-43.152;172.732;2024-03-23T09:58:01;21.80;49.50
65826;DHT22;52586;-43.152;172.732;2024-03-23T10:00:32;21.80;49.50
65826;DHT22;52586;-43.152;172.732;2024-03-23T10:03:02;21.80;49.50
65826;DHT22;52586;-43.152;172.732;2024-03-23T10:05:34;21.80;49.50
65826;DHT22;52586;-43.152;172.732;2024-03-23T10:08:18;21.70;49.50
65826;DHT22;52586;-43.152;172.732;2024-03-23T10:10:49;21.70;49.50
65826;DHT22;52586;-43.152;172.732;2024-03-23T10:13:29;21.70;49.50
65826;DHT22;52586;-43.152;172.732;2024-03-23T10:15:59;21.70;49.50
65826;DHT22;52586;-43.152;172.732;2024-03-23T10:18:30;21.70;49.40
65826;DHT22;52586;-43.152;172.732;2024-03-23T10:21:08;21.70;49.40
65826;DHT22;52586;-43.152;172.732;2024-03-23T10:23:40;21.70;49.40
65826;DHT22;52586;-43.152;172.732;2024-03-23T10:26:19;21.70;49.40
65826;DHT22;52586;-43.152;172.732;2024-03-23T10:28:57;21.60;49.40
65826;DHT22;52586;-43.152;172.732;2024-03-23T10:31:28;21.60;49.40
65826;DHT22;52586;-43.152;172.732;2024-03-23T10:33:59;21.60;49.40
65826;DHT22;52586;-43.152;172.732;2024-03-23T10:36:28;21.60;49.40
65826;DHT22;52586;-43.152;172.732;2024-03-23T10:39:00;21.60;49.40
65826;DHT22;52586;-43.152;172.732;2024-03-23T10:41:33;21.50;49.40
65826;DHT22;52586;-43.152;172.732;2024-03-23T10:44:05;21.50;49.40
65826;DHT22;52586;-43.152;172.732;2024-03-23T10:46:35;21.50;49.40
65826;DHT22;52586;-43.152;172.732;2024-03-23T10:49:06;21.50;49.40
65826;DHT22;52586;-43.152;172.732;2024-03-23T10:51:35;21.50;49.40
65826;DHT22;52586;-43.152;172.732;2024-03-23T10:54:07;21.50;49.50
65826;DHT22;52586;-43.152;172.732;2024-03-23T10:56:42;21.40;49.40
65826;DHT22;52586;-43.152;172.732;2024-03-23T10:59:13;21.50;49.40
65826;DHT22;52586;-43.152;172.732;2024-03-23T11:01:56;21.50;49.40
65826;DHT22;52586;-43.152;172.732;2024-03-23T11:04:34;21.40;49.40
65826;DHT22;52586;-43.152;172.732;2024-03-23T11:07:03;21.40;49.40
65826;DHT22;52586;-43.152;172.732;2024-03-23T11:09:54;21.40;49.40
65826;DHT22;52586;-43.152;172.732;2024-03-23T11:12:30;21.40;49.40
65826;DHT22;52586;-43.152;172.732;2024-03-23T11:15:05;21.40;49.40
65826;DHT22;52586;-43.152;172.732;2024-03-23T11:17:37;21.40;49.40
65826;DHT22;52586;-43.152;172.732;2024-03-23T11:20:09;21.30;49.40
65826;DHT22;52586;-43.152;172.732;2024-03-23T11:22:43;21.30;49.30
65826;DHT22;52586;-43.152;172.732;2024-03-23T11:25:15;21.30;49.40
65826;DHT22;52586;-43.152;172.732;2024-03-23T11:27:47;21.30;49.40
65826;DHT22;52586;-43.152;172.732;2024-03-23T11:30:19;21.30;49.40
65826;DHT22;52586;-43.152;172.732;2024-03-23T11:32:48;21.30;49.40
65826;DHT22;52586;-43.152;172.732;2024-03-23T11:35:29;21.30;49.40
65826;DHT22;52586;-43.152;172.732;2024-03-23T11:38:08;21.30;49.40
65826;DHT22;52586;-43.152;172.732;2024-03-23T11:40:40;21.30;49.40
65826;DHT22;52586;-43.152;172.732;2024-03-23T11:43:12;21.20;49.40
65826;DHT22;52586;-43.152;172.732;2024-03-23T11:45:44;21.30;49.40
65826;DHT22;52586;-43.152;172.732;2024-03-23T11:48:14;21.30;49.40
65826;DHT22;52586;-43.152;172.732;2024-03-23T11:50:46;21.30;49.40
65826;DHT22;52586;-43.152;172.732;2024-03-23T11:53:16;21.30;49.40
65826;DHT22;52586;-43.152;172.732;2024-03-23T11:55:48;21.20;49.40
65826;DHT22;52586;-43.152;172.732;2024-03-23T11:58:20;21.20;49.40
65826;DHT22;52586;-43.152;172.732;2024-03-23T12:00:52;21.20;49.30
65826;DHT22;52586;-43.152;172.732;2024-03-23T12:03:21;21.20;49.30
65826;DHT22;52586;-43.152;172.732;2024-03-23T12:05:54;21.20;49.40
65826;DHT22;52586;-43.152;172.732;2024-03-23T12:08:24;21.20;49.40
65826;DHT22;52586;-43.152;172.732;2024-03-23T12:11:05;21.20;49.40
65826;DHT22;52586;-43.152;172.732;2024-03-23T12:13:37;21.20;49.30
65826;DHT22;52586;-43.152;172.732;2024-03-23T12:16:12;21.20;49.40
65826;DHT22;52586;-43.152;172.732;2024-03-23T12:18:42;21.10;49.30
65826;DHT22;52586;-43.152;172.732;2024-03-23T12:21:13;21.10;49.30
65826;DHT22;52586;-43.152;172.732;2024-03-23T12:23:42;21.10;49.30
65826;DHT22;52586;-43.152;172.732;2024-03-23T12:26:14;21.10;49.40
65826;DHT22;52586;-43.152;172.732;2024-03-23T12:28:47;21.10;49.40
65826;DHT22;52586;-43.152;172.732;2024-03-23T12:31:17;21.10;49.40
65826;DHT22;52586;-43.152;172.732;2024-03-23T12:33:46;21.10;49.40
65826;DHT22;52586;-43.152;172.732;2024-03-23T12:36:17;21.10;49.40
65826;DHT22;52586;-43.152;172.732;2024-03-23T12:38:46;21.10;49.40
65826;DHT22;52586;-43.152;172.732;2024-03-23T12:41:17;21.10;49.40
65826;DHT22;52586;-43.152;172.732;2024-03-23T12:43:48;21.10;49.40
65826;DHT22;52586;-43.152;172.732;2024-03-23T12:46:18;21.10;49.40
65826;DHT22;52586;-43.152;172.732;2024-03-23T12:48:48;21.10;49.30
65826;DHT22;52586;-43.152;172.732;2024-03-23T12:51:18;21.10;49.40
65826;DHT22;52586;-43.152;172.732;2024-03-23T12:53:48;21.10;49.30
65826;DHT22;52586;-43.152;172.732;2024-03-23T12:56:18;21.10;49.30
65826;DHT22;52586;-43.152;172.732;2024-03-23T12:58:49;21.10;49.30
65826;DHT22;52586;-43.152;172.732;2024-03-23T13:01:21;21.10;49.40
65826;DHT22;52586;-43.152;172.732;2024-03-23T13:03:51;21.00;49.30
65826;DHT22;52586;-43.152;172.732;2024-03-23T13:06:22;21.10;49.30
65826;DHT22;52586;-43.152;172.732;2024-03-23T13:08:51;21.10;49.30
65826;DHT22;52586;-43.152;172.732;2024-03-23T13:11:22;21.00;49.30
65826;DHT22;52586;-43.152;172.732;2024-03-23T13:13:53;21.00;49.30
65826;DHT22;52586;-43.152;172.732;2024-03-23T13:16:24;21.00;49.40
65826;DHT22;52586;-43.152;172.732;2024-03-23T13:18:53;21.00;49.40
65826;DHT22;52586;-43.152;172.732;2024-03-23T13:21:24;21.00;49.30
65826;DHT22;52586;-43.152;172.732;2024-03-23T13:23:53;21.00;49.40
65826;DHT22;52586;-43.152;172.732;2024-03-23T13:26:23;21.00;49.40
65826;DHT22;52586;-43.152;172.732;2024-03-23T13:28:54;21.00;49.30
65826;DHT22;52586;-43.152;172.732;2024-03-23T13:31:25;21.00;49.30
65826;DHT22;52586;-43.152;172.732;2024-03-23T13:33:54;21.00;49.30
65826;DHT22;52586;-43.152;172.732;2024-03-23T13:36:25;21.00;49.40
65826;DHT22;52586;-43.152;172.732;2024-03-23T13:38:54;21.00;49.40
65826;DHT22;52586;-43.152;172.732;2024-03-23T13:41:25;21.00;49.30
65826;DHT22;52586;-43.152;172.732;2024-03-23T13:43:56;21.00;49.40
65826;DHT22;52586;-43.152;172.732;2024-03-23T13:46:27;21.00;49.40
65826;DHT22;52586;-43.152;172.732;2024-03-23T13:48:56;20.90;49.30
65826;DHT22;52586;-43.152;172.732;2024-03-23T13:51:27;21.00;49.40
65826;DHT22;52586;-43.152;172.732;2024-03-23T13:53:56;21.00;49.30
65826;DHT22;52586;-43.152;172.732;2024-03-23T13:56:28;20.90;49.30
65826;DHT22;52586;-43.152;172.732;2024-03-23T13:58:59;20.90;49.30
65826;DHT22;52586;-43.152;172.732;2024-03-23T14:01:30;20.90;49.30
65826;DHT22;52586;-43.152;172.732;2024-03-23T14:04:00;20.90;49.30
65826;DHT22;52586;-43.152;172.732;2024-03-23T14:06:30;20.90;49.30
65826;DHT22;52586;-43.152;172.732;2024-03-23T14:09:00;20.90;49.30
65826;DHT22;52586;-43.152;172.732;2024-03-23T14:11:31;20.90;49.40
65826;DHT22;52586;-43.152;172.732;2024-03-23T14:14:02;20.90;49.30
65826;DHT22;52586;-43.152;172.732;2024-03-23T14:16:33;20.90;49.30
65826;DHT22;52586;-43.152;172.732;2024-03-23T14:19:02;21.00;49.40
65826;DHT22;52586;-43.152;172.732;2024-03-23T14:21:33;20.90;49.30
65826;DHT22;52586;-43.152;172.732;2024-03-23T14:24:06;20.90;49.30
65826;DHT22;52586;-43.152;172.732;2024-03-23T14:26:37;20.90;49.30
65826;DHT22;52586;-43.152;172.732;2024-03-23T14:29:08;20.90;49.30
65826;DHT22;52586;-43.152;172.732;2024-03-23T14:31:39;20.90;49.30
65826;DHT22;52586;-43.152;172.732;2024-03-23T14:34:08;20.90;49.30
65826;DHT22;52586;-43.152;172.732;2024-03-23T14:36:39;20.90;49.30
65826;DHT22;52586;-43.152;172.732;2024-03-23T14:39:08;20.90;49.30
65826;DHT22;52586;-43.152;172.732;2024-03-23T14:41:40;20.90;49.30
65826;DHT22;52586;-43.152;172.732;2024-03-23T14:44:11;20.80;49.30
65826;DHT22;52586;-43.152;172.732;2024-03-23T14:46:42;20.90;49.40
65826;DHT22;52586;-43.152;172.732;2024-03-23T14:49:15;20.80;49.30
65826;DHT22;52586;-43.152;172.732;2024-03-23T14:51:46;20.80;49.30
65826;DHT22;52586;-43.152;172.732;2024-03-23T14:54:15;20.90;49.40
65826;DHT22;52586;-43.152;172.732;2024-03-23T14:56:46;20.80;49.40
65826;DHT22;52586;-43.152;172.732;2024-03-23T14:59:17;20.80;49.40
65826;DHT22;52586;-43.152;172.732;2024-03-23T15:01:48;20.90;49.40
65826;DHT22;52586;-43.152;172.732;2024-03-23T15:04:18;20.80;49.40
65826;DHT22;52586;-43.152;172.732;2024-03-23T15:06:48;20.90;49.40
65826;DHT22;52586;-43.152;172.732;2024-03-23T15:09:18;20.80;49.30
65826;DHT22;52586;-43.152;172.732;2024-03-23T15:11:48;20.80;49.40
65826;DHT22;52586;-43.152;172.732;2024-03-23T15:14:19;20.80;49.40
65826;DHT22;52586;-43.152;172.732;2024-03-23T15:16:50;20.80;49.40
65826;DHT22;52586;-43.152;172.732;2024-03-23T15:19:20;20.80;49.40
65826;DHT22;52586;-43.152;172.732;2024-03-23T15:21:52;20.80;49.40
65826;DHT22;52586;-43.152;172.732;2024-03-23T15:24:21;20.80;49.40
65826;DHT22;52586;-43.152;172.732;2024-03-23T15:26:52;20.80;49.40
65826;DHT22;52586;-43.152;172.732;2024-03-23T15:29:24;20.80;49.40
65826;DHT22;52586;-43.152;172.732;2024-03-23T15:31:55;20.80;49.40
65826;DHT22;52586;-43.152;172.732;2024-03-23T15:34:24;20.80;49.30
65826;DHT22;52586;-43.152;172.732;2024-03-23T15:36:55;20.80;49.40
65826;DHT22;52586;-43.152;172.732;2024-03-23T15:39:24;20.80;49.40
65826;DHT22;52586;-43.152;172.732;2024-03-23T15:41:56;20.70;49.40
65826;DHT22;52586;-43.152;172.732;2024-03-23T15:44:27;20.70;49.40
65826;DHT22;52586;-43.152;172.732;2024-03-23T15:46:57;20.70;49.40
65826;DHT22;52586;-43.152;172.732;2024-03-23T15:49:27;20.80;49.40
65826;DHT22;52586;-43.152;172.732;2024-03-23T15:51:58;20.70;49.40
65826;DHT22;52586;-43.152;172.732;2024-03-23T15:54:28;20.80;49.40
65826;DHT22;52586;-43.152;172.732;2024-03-23T15:56:58;20.80;49.40
65826;DHT22;52586;-43.152;172.732;2024-03-23T15:59:29;20.80;49.40
65826;DHT22;52586;-43.152;172.732;2024-03-23T16:02:00;20.80;49.40